createdAt,value
2022-07-29T00:00:06.351Z,17.72
2022-07-29T00:02:33.255Z,17.76
2022-07-29T00:05:00.251Z,17.80
2022-07-29T00:07:27.799Z,17.78
2022-07-29T00:09:54.523Z,17.80
2022-07-29T00:12:26.169Z,17.82
2022-07-29T00:14:55.435Z,17.85
2022-07-29T00:17:22.713Z,17.84
2022-07-29T00:19:49.657Z,17.83
2022-07-29T00:22:16.437Z,17.82
2022-07-29T00:24:43.085Z,17.82
2022-07-29T00:27:09.742Z,17.83
2022-07-29T00:29:36.406Z,17.85
2022-07-29T00:32:04.034Z,17.84
2022-07-29T00:34:49.922Z,17.85
2022-07-29T00:37:16.668Z,17.87
2022-07-29T00:39:43.816Z,17.88
2022-07-29T00:42:11.024Z,17.92
2022-07-29T00:44:41.672Z,17.96
2022-07-29T00:47:09.546Z,17.99
2022-07-29T00:49:37.297Z,18.00
2022-07-29T00:52:06.677Z,18.03
2022-07-29T00:54:34.040Z,18.05
2022-07-29T00:57:01.235Z,18.05
2022-07-29T00:59:35.064Z,18.06
2022-07-29T01:02:04.117Z,18.06
2022-07-29T01:04:32.421Z,18.07
2022-07-29T01:07:01.663Z,18.07
2022-07-29T01:09:42.203Z,18.09
2022-07-29T01:12:20.030Z,18.06
2022-07-29T01:14:49.742Z,18.06
2022-07-29T01:17:26.498Z,18.07
2022-07-29T01:20:08.336Z,18.08
2022-07-29T01:22:34.961Z,18.04
2022-07-29T01:25:38.788Z,17.98
2022-07-29T01:28:08.014Z,17.83
2022-07-29T01:30:39.805Z,17.72
2022-07-29T01:33:35.013Z,17.61
2022-07-29T01:36:10.483Z,17.49
2022-07-29T01:38:40.682Z,17.39
2022-07-29T01:41:13.706Z,17.31
2022-07-29T01:44:00.345Z,17.24
2022-07-29T01:46:39.163Z,17.17
2022-07-29T01:49:17.867Z,17.11
2022-07-29T01:51:52.709Z,17.07
2022-07-29T01:54:37.923Z,17.04
2022-07-29T01:57:06.183Z,17.03
2022-07-29T01:59:36.076Z,17.01
2022-07-29T02:02:03.480Z,16.99
2022-07-29T02:04:33.279Z,16.95
2022-07-29T02:07:03.677Z,16.94
2022-07-29T02:09:33.506Z,16.91
2022-07-29T02:12:03.729Z,16.88
2022-07-29T02:14:35.305Z,16.85
2022-07-29T02:17:04.150Z,16.81
2022-07-29T02:19:34.561Z,16.79
2022-07-29T02:22:02.815Z,16.77
2022-07-29T02:24:31.730Z,16.73
2022-07-29T02:27:00.583Z,16.70
2022-07-29T02:29:29.624Z,16.68
2022-07-29T02:31:58.329Z,16.68
2022-07-29T02:34:26.414Z,16.67
2022-07-29T02:36:55.238Z,16.66
2022-07-29T02:39:23.073Z,16.64
2022-07-29T02:41:52.767Z,16.63
2022-07-29T02:44:20.777Z,16.62
2022-07-29T02:46:56.811Z,16.59
2022-07-29T02:49:39.680Z,16.56
2022-07-29T02:52:38.881Z,16.55
2022-07-29T02:55:18.677Z,16.55
2022-07-29T02:58:07.319Z,16.55
2022-07-29T03:00:38.574Z,16.55
2022-07-29T03:03:14.232Z,16.55
2022-07-29T03:05:41.322Z,16.55
2022-07-29T03:08:13.519Z,16.56
2022-07-29T03:10:46.639Z,16.59
2022-07-29T03:13:14.361Z,16.62
2022-07-29T03:15:44.741Z,16.66
2022-07-29T03:18:11.849Z,16.70
2022-07-29T03:20:40.281Z,16.74
2022-07-29T03:23:07.741Z,16.75
2022-07-29T03:25:34.745Z,16.77
2022-07-29T03:28:01.471Z,16.79
2022-07-29T03:30:31.743Z,16.79
2022-07-29T03:32:59.032Z,16.78
2022-07-29T03:35:25.866Z,16.79
2022-07-29T03:37:52.549Z,16.80
2022-07-29T03:40:52.589Z,16.80
2022-07-29T03:43:20.418Z,16.80
2022-07-29T03:45:51.605Z,16.79
2022-07-29T03:48:23.119Z,16.80
2022-07-29T03:50:51.736Z,16.81
2022-07-29T03:53:18.794Z,16.82
2022-07-29T03:55:49.626Z,16.84
2022-07-29T03:58:18.220Z,16.87
2022-07-29T04:00:46.018Z,16.88
2022-07-29T04:03:13.731Z,16.88
2022-07-29T04:05:42.752Z,16.90
2022-07-29T04:08:09.463Z,16.91
2022-07-29T04:10:36.558Z,16.92
2022-07-29T04:13:03.466Z,16.94
2022-07-29T04:15:31.189Z,16.99
2022-07-29T04:17:58.504Z,16.99
2022-07-29T04:20:25.311Z,17.03
2022-07-29T04:22:52.014Z,17.07
2022-07-29T04:25:18.685Z,17.11
2022-07-29T04:28:03.739Z,17.17
2022-07-29T04:30:31.652Z,17.24
2022-07-29T04:32:58.425Z,17.30
2022-07-29T04:35:25.537Z,17.36
2022-07-29T04:37:52.205Z,17.43
2022-07-29T04:40:19.763Z,17.47
2022-07-29T04:42:47.821Z,17.51
2022-07-29T04:45:15.161Z,17.54
2022-07-29T04:47:43.270Z,17.56
2022-07-29T04:50:11.252Z,17.58
2022-07-29T04:52:41.006Z,17.59
2022-07-29T04:55:07.922Z,17.61
2022-07-29T04:57:34.654Z,17.59
2022-07-29T05:00:02.059Z,17.61
2022-07-29T05:02:28.768Z,17.61
2022-07-29T05:04:55.534Z,17.62
2022-07-29T05:07:22.276Z,17.64
2022-07-29T05:09:49.243Z,17.67
2022-07-29T05:12:16.088Z,17.67
2022-07-29T05:14:42.770Z,17.73
2022-07-29T05:17:09.443Z,17.79
2022-07-29T05:19:39.297Z,17.86
2022-07-29T05:22:06.684Z,17.94
2022-07-29T05:24:33.421Z,18.01
2022-07-29T05:27:00.373Z,18.07
2022-07-29T05:29:44.241Z,18.16
2022-07-29T05:32:13.015Z,18.23
2022-07-29T05:34:50.712Z,18.27
2022-07-29T05:37:20.830Z,18.33
2022-07-29T05:39:50.575Z,18.40
2022-07-29T05:42:23.395Z,18.46
2022-07-29T05:44:50.041Z,18.48
2022-07-29T05:47:17.082Z,18.52
2022-07-29T05:49:47.123Z,18.59
2022-07-29T05:52:14.322Z,18.68
2022-07-29T05:54:41.496Z,18.71
2022-07-29T05:57:08.212Z,18.75
2022-07-29T05:59:38.525Z,18.80
2022-07-29T06:02:06.272Z,18.89
2022-07-29T06:04:34.825Z,19.03
2022-07-29T06:07:02.997Z,19.16
2022-07-29T06:09:30.093Z,19.27
2022-07-29T06:11:56.964Z,19.37
2022-07-29T06:14:23.626Z,19.46
2022-07-29T06:16:50.427Z,19.49
2022-07-29T06:19:17.173Z,19.47
2022-07-29T06:21:44.656Z,19.50
2022-07-29T06:24:16.787Z,19.57
2022-07-29T06:26:48.672Z,19.63
2022-07-29T06:29:15.537Z,19.73
2022-07-29T06:31:42.317Z,19.79
2022-07-29T06:34:09.020Z,19.90
2022-07-29T06:36:37.884Z,20.02
2022-07-29T06:39:07.837Z,20.10
2022-07-29T06:41:34.902Z,20.22
2022-07-29T06:44:01.584Z,20.29
2022-07-29T06:46:28.788Z,20.38
2022-07-29T06:48:55.639Z,20.47
2022-07-29T06:51:23.815Z,20.53
2022-07-29T06:53:59.501Z,20.58
2022-07-29T06:56:39.084Z,20.73
2022-07-29T06:59:08.335Z,20.94
2022-07-29T07:01:35.990Z,21.15
2022-07-29T07:04:03.355Z,21.29
2022-07-29T07:06:30.203Z,21.43
2022-07-29T07:08:58.853Z,21.55
2022-07-29T07:11:25.600Z,21.68
2022-07-29T07:13:52.307Z,21.78
2022-07-29T07:16:19.105Z,21.76
2022-07-29T07:18:46.337Z,21.80
2022-07-29T07:21:18.779Z,21.82
2022-07-29T07:23:46.264Z,21.82
2022-07-29T07:26:13.197Z,21.79
2022-07-29T07:28:39.840Z,21.78
2022-07-29T07:31:07.193Z,21.84
2022-07-29T07:33:33.886Z,21.89
2022-07-29T07:36:00.647Z,21.94
2022-07-29T07:38:27.766Z,21.99
2022-07-29T07:40:54.481Z,22.08
2022-07-29T07:43:21.180Z,22.21
2022-07-29T07:45:47.908Z,22.32
2022-07-29T07:48:14.604Z,22.41
2022-07-29T07:50:41.328Z,22.47
2022-07-29T07:53:08.256Z,22.58
2022-07-29T07:56:00.381Z,22.73
2022-07-29T07:58:25.097Z,22.93
2022-07-29T08:00:51.881Z,23.08
2022-07-29T08:03:18.651Z,23.24
2022-07-29T08:05:45.424Z,23.32
2022-07-29T08:08:12.208Z,23.35
2022-07-29T08:10:54.188Z,23.41
2022-07-29T08:13:22.967Z,23.44
2022-07-29T08:15:58.722Z,23.46
2022-07-29T08:18:26.526Z,23.55
2022-07-29T08:20:53.265Z,23.69
2022-07-29T08:23:23.843Z,23.74
2022-07-29T08:25:52.248Z,23.78
2022-07-29T08:28:25.658Z,23.80
2022-07-29T08:30:52.842Z,23.84
2022-07-29T08:33:19.582Z,23.87
2022-07-29T08:35:46.740Z,23.92
2022-07-29T08:38:13.430Z,24.00
2022-07-29T08:40:40.633Z,24.02
2022-07-29T08:43:09.357Z,24.11
2022-07-29T08:45:56.286Z,24.26
2022-07-29T08:48:24.491Z,24.44
2022-07-29T08:50:57.325Z,24.68
2022-07-29T08:53:28.092Z,24.99
2022-07-29T08:55:55.732Z,25.32
2022-07-29T08:58:24.935Z,25.58
2022-07-29T09:00:55.567Z,25.82
2022-07-29T09:03:25.650Z,26.03
2022-07-29T09:05:53.523Z,26.17
2022-07-29T09:08:21.217Z,26.38
2022-07-29T09:10:48.331Z,26.79
2022-07-29T09:13:15.055Z,27.32
2022-07-29T09:15:41.846Z,27.88
2022-07-29T09:18:08.571Z,28.39
2022-07-29T09:21:12.446Z,29.15
2022-07-29T09:23:40.800Z,29.72
2022-07-29T09:26:07.459Z,29.83
2022-07-29T09:28:34.630Z,29.75
2022-07-29T09:31:01.316Z,29.98
2022-07-29T09:33:41.441Z,30.54
2022-07-29T09:36:09.725Z,31.26
2022-07-29T09:38:38.069Z,32.14
2022-07-29T09:41:06.911Z,32.98
2022-07-29T09:43:34.802Z,33.72
2022-07-29T09:46:12.510Z,34.31
2022-07-29T09:48:39.430Z,34.81
2022-07-29T09:51:07.573Z,35.20
2022-07-29T09:53:38.838Z,35.50
2022-07-29T09:56:06.458Z,35.23
2022-07-29T09:58:36.640Z,34.61
2022-07-29T10:01:04.385Z,34.40
2022-07-29T10:03:31.903Z,34.10
2022-07-29T10:06:14.519Z,33.58
2022-07-29T10:08:42.993Z,33.21
2022-07-29T10:11:17.083Z,32.83
2022-07-29T10:13:45.671Z,32.72
2022-07-29T10:16:13.958Z,33.08
2022-07-29T10:18:42.200Z,33.43
2022-07-29T10:21:09.173Z,33.39
2022-07-29T10:23:46.101Z,33.28
2022-07-29T10:26:14.198Z,33.31
2022-07-29T10:28:40.949Z,33.32
2022-07-29T10:31:15.384Z,33.08
2022-07-29T10:34:26.691Z,32.96
2022-07-29T10:37:19.649Z,33.49
2022-07-29T10:40:23.257Z,34.39
2022-07-29T10:42:54.734Z,35.57
2022-07-29T10:45:22.578Z,36.25
2022-07-29T10:47:49.712Z,36.92
2022-07-29T10:50:17.369Z,37.40
2022-07-29T10:53:00.416Z,38.02
2022-07-29T10:55:49.848Z,38.37
2022-07-29T10:58:24.967Z,38.23
2022-07-29T11:00:53.413Z,38.28
2022-07-29T11:03:52.430Z,38.20
2022-07-29T11:06:26.243Z,38.04
2022-07-29T11:09:17.097Z,37.99
2022-07-29T11:11:47.638Z,37.93
2022-07-29T11:14:52.726Z,37.85
2022-07-29T11:17:19.780Z,37.31
2022-07-29T11:19:52.053Z,36.31
2022-07-29T11:22:36.449Z,35.60
2022-07-29T11:25:17.653Z,35.16
2022-07-29T11:27:46.247Z,34.66
2022-07-29T11:30:14.964Z,34.28
2022-07-29T11:32:48.675Z,34.03
2022-07-29T11:35:38.045Z,33.83
2022-07-29T11:38:28.761Z,33.70
2022-07-29T11:41:25.415Z,33.44
2022-07-29T11:43:56.041Z,33.25
2022-07-29T11:46:53.989Z,33.16
2022-07-29T11:49:32.197Z,33.31
2022-07-29T11:52:03.019Z,33.73
2022-07-29T11:54:57.193Z,34.23
2022-07-29T11:57:22.458Z,34.57
2022-07-29T11:59:49.716Z,34.69
2022-07-29T12:02:36.565Z,34.61
2022-07-29T12:05:10.886Z,34.65
2022-07-29T12:07:41.159Z,34.65
2022-07-29T12:10:19.752Z,34.60
2022-07-29T12:12:52.687Z,34.49
2022-07-29T12:15:22.414Z,34.30
2022-07-29T12:17:49.570Z,33.83
2022-07-29T12:20:25.392Z,33.51
2022-07-29T12:22:54.624Z,33.33
2022-07-29T12:25:39.033Z,33.19
2022-07-29T12:28:14.197Z,33.03
2022-07-29T12:30:51.761Z,32.94
2022-07-29T12:33:27.555Z,32.82
2022-07-29T12:36:10.309Z,32.82
2022-07-29T12:38:41.822Z,32.86
2022-07-29T12:41:09.590Z,32.92
2022-07-29T12:43:36.289Z,32.91
2022-07-29T12:46:14.607Z,32.78
2022-07-29T12:48:43.724Z,32.64
2022-07-29T12:51:12.865Z,32.46
2022-07-29T12:53:39.914Z,32.35
2022-07-29T12:56:26.705Z,32.33
2022-07-29T12:58:55.040Z,32.36
2022-07-29T13:01:22.226Z,32.47
2022-07-29T13:03:56.782Z,32.67
2022-07-29T13:06:36.654Z,33.09
2022-07-29T13:09:08.311Z,33.38
2022-07-29T13:11:58.719Z,33.61
2022-07-29T13:14:37.146Z,34.02
2022-07-29T13:17:05.838Z,34.57
2022-07-29T13:19:36.838Z,35.33
2022-07-29T13:22:03.858Z,36.24
2022-07-29T13:24:30.587Z,36.89
2022-07-29T13:26:57.287Z,37.31
2022-07-29T13:29:25.763Z,37.39
2022-07-29T13:31:55.700Z,37.47
2022-07-29T13:34:23.384Z,37.48
2022-07-29T13:36:50.019Z,37.48
2022-07-29T13:39:16.714Z,37.26
2022-07-29T13:41:43.567Z,37.03
2022-07-29T13:44:10.525Z,36.83
2022-07-29T13:46:37.169Z,36.46
2022-07-29T13:49:06.871Z,36.17
2022-07-29T13:51:33.642Z,36.33
2022-07-29T13:54:00.450Z,36.58
2022-07-29T13:56:27.619Z,36.81
2022-07-29T13:58:54.270Z,36.87
2022-07-29T14:01:21.295Z,36.73
2022-07-29T14:03:48.068Z,36.50
2022-07-29T14:06:14.741Z,36.33
2022-07-29T14:08:42.032Z,36.23
2022-07-29T14:11:08.702Z,36.11
2022-07-29T14:13:35.442Z,35.80
2022-07-29T14:16:02.413Z,35.68
2022-07-29T14:18:29.140Z,35.74
2022-07-29T14:20:55.983Z,35.65
2022-07-29T14:23:23.214Z,35.42
2022-07-29T14:25:49.938Z,35.31
2022-07-29T14:28:17.074Z,35.29
2022-07-29T14:30:44.228Z,35.09
2022-07-29T14:33:11.306Z,34.82
2022-07-29T14:35:38.042Z,34.42
2022-07-29T14:38:04.698Z,33.97
2022-07-29T14:40:31.415Z,33.67
2022-07-29T14:42:58.087Z,33.45
2022-07-29T14:45:25.025Z,33.15
2022-07-29T14:47:51.843Z,32.73
2022-07-29T14:50:31.835Z,32.37
2022-07-29T14:52:59.054Z,32.06
2022-07-29T14:55:26.029Z,31.88
2022-07-29T14:57:56.384Z,31.62
2022-07-29T15:00:27.837Z,31.41
2022-07-29T15:03:02.799Z,31.19
2022-07-29T15:05:30.791Z,30.97
2022-07-29T15:07:57.705Z,30.76
2022-07-29T15:10:24.816Z,30.60
2022-07-29T15:12:51.664Z,30.39
2022-07-29T15:15:18.383Z,30.22
2022-07-29T15:17:45.293Z,30.02
2022-07-29T15:20:12.924Z,29.84
2022-07-29T15:22:40.293Z,29.64
2022-07-29T15:25:07.473Z,29.44
2022-07-29T15:27:34.772Z,29.26
2022-07-29T15:30:01.512Z,29.06
2022-07-29T15:32:28.196Z,28.88
2022-07-29T15:34:54.857Z,28.72
2022-07-29T15:37:21.535Z,28.55
2022-07-29T15:39:48.769Z,28.42
2022-07-29T15:42:15.443Z,28.28
2022-07-29T15:44:44.566Z,28.17
2022-07-29T15:47:11.820Z,28.06
2022-07-29T15:49:48.148Z,27.93
2022-07-29T15:52:25.701Z,27.77
2022-07-29T15:55:03.430Z,27.57
2022-07-29T15:57:30.482Z,27.42
2022-07-29T15:59:57.359Z,27.31
2022-07-29T16:02:27.735Z,27.20
2022-07-29T16:04:54.824Z,27.10
2022-07-29T16:07:21.988Z,27.05
2022-07-29T16:09:53.054Z,26.96
2022-07-29T16:12:21.261Z,26.88
2022-07-29T16:14:49.608Z,26.82
2022-07-29T16:17:16.695Z,26.77
2022-07-29T16:19:44.373Z,26.72
2022-07-29T16:22:12.431Z,26.66
2022-07-29T16:24:40.877Z,26.61
2022-07-29T16:27:07.957Z,26.54
2022-07-29T16:29:35.004Z,26.47
2022-07-29T16:32:01.937Z,26.40
2022-07-29T16:34:28.759Z,26.29
2022-07-29T16:36:55.437Z,26.10
2022-07-29T16:39:22.193Z,25.65
2022-07-29T16:41:50.224Z,25.05
2022-07-29T16:44:16.873Z,24.52
2022-07-29T16:46:45.421Z,24.19
2022-07-29T16:49:19.466Z,23.89
2022-07-29T16:51:48.004Z,23.71
2022-07-29T16:54:14.779Z,23.54
2022-07-29T16:56:41.853Z,23.40
2022-07-29T16:59:08.568Z,23.28
2022-07-29T17:01:35.317Z,23.20
2022-07-29T17:04:08.350Z,23.11
2022-07-29T17:06:39.921Z,22.95
2022-07-29T17:09:08.867Z,22.87
2022-07-29T17:11:53.799Z,22.81
2022-07-29T17:14:24.075Z,22.71
2022-07-29T17:17:00.627Z,22.69
2022-07-29T17:19:31.846Z,22.73
2022-07-29T17:22:05.003Z,22.76
2022-07-29T17:24:36.072Z,22.73
2022-07-29T17:27:02.776Z,22.71
2022-07-29T17:29:29.473Z,22.67
2022-07-29T17:31:57.796Z,22.68
2022-07-29T17:34:24.488Z,22.71
2022-07-29T17:36:51.151Z,22.73
2022-07-29T17:39:17.925Z,22.77
2022-07-29T17:41:47.164Z,22.83
2022-07-29T17:44:13.999Z,22.87
2022-07-29T17:46:40.946Z,22.90
2022-07-29T17:49:07.753Z,22.91
2022-07-29T17:51:34.514Z,22.93
2022-07-29T17:54:01.260Z,22.94
2022-07-29T17:56:28.007Z,22.96
2022-07-29T17:58:54.936Z,22.97
2022-07-29T18:01:23.792Z,22.92
2022-07-29T18:03:50.963Z,22.87
2022-07-29T18:06:17.672Z,22.87
2022-07-29T18:08:47.639Z,22.86
2022-07-29T18:11:15.514Z,22.84
2022-07-29T18:13:42.469Z,22.81
2022-07-29T18:16:09.839Z,22.76
2022-07-29T18:18:36.598Z,22.72
2022-07-29T18:21:03.722Z,22.68
2022-07-29T18:23:30.499Z,22.62
2022-07-29T18:25:57.303Z,22.55
2022-07-29T18:28:23.998Z,22.48
2022-07-29T18:30:51.347Z,22.42
2022-07-29T18:33:21.711Z,22.33
2022-07-29T18:35:50.796Z,22.26
2022-07-29T18:38:17.951Z,22.19
2022-07-29T18:40:46.107Z,22.09
2022-07-29T18:43:13.750Z,22.02
2022-07-29T18:45:42.514Z,21.94
2022-07-29T18:48:12.960Z,21.92
2022-07-29T18:50:40.582Z,21.88
2022-07-29T18:53:07.458Z,21.83
2022-07-29T18:55:35.209Z,21.78
2022-07-29T18:58:02.023Z,21.72
2022-07-29T19:00:28.761Z,21.70
2022-07-29T19:02:56.202Z,21.66
2022-07-29T19:05:23.756Z,21.61
2022-07-29T19:07:50.744Z,21.58
2022-07-29T19:10:17.824Z,21.55
2022-07-29T19:12:44.564Z,21.52
2022-07-29T19:15:11.479Z,21.48
2022-07-29T19:17:39.801Z,21.42
2022-07-29T19:20:08.088Z,21.35
2022-07-29T19:22:35.117Z,21.30
2022-07-29T19:25:01.901Z,21.26
2022-07-29T19:27:28.686Z,21.18
2022-07-29T19:29:59.245Z,21.15
2022-07-29T19:32:26.517Z,21.11
2022-07-29T19:35:12.081Z,21.08
2022-07-29T19:37:38.797Z,21.04
2022-07-29T19:40:06.983Z,21.01
2022-07-29T19:42:34.025Z,21.01
2022-07-29T19:45:01.205Z,20.99
2022-07-29T19:47:27.969Z,20.97
2022-07-29T19:49:54.634Z,20.95
2022-07-29T19:52:21.385Z,20.93
2022-07-29T19:54:48.251Z,20.91
2022-07-29T19:57:15.038Z,20.90
2022-07-29T19:59:41.732Z,20.89
2022-07-29T20:02:11.162Z,20.86
2022-07-29T20:04:38.748Z,20.82
2022-07-29T20:07:07.033Z,20.79
2022-07-29T20:09:33.819Z,20.80
2022-07-29T20:12:00.885Z,20.79
2022-07-29T20:14:27.791Z,20.80
2022-07-29T20:16:54.570Z,20.77
2022-07-29T20:19:21.662Z,20.73
2022-07-29T20:21:48.412Z,20.69
2022-07-29T20:24:15.092Z,20.63
2022-07-29T20:26:41.961Z,20.56
2022-07-29T20:29:09.233Z,20.49
2022-07-29T20:31:36.019Z,20.46
2022-07-29T20:34:02.854Z,20.44
2022-07-29T20:36:29.547Z,20.44
2022-07-29T20:38:57.125Z,20.42
2022-07-29T20:41:23.782Z,20.40
2022-07-29T20:43:50.476Z,20.39
2022-07-29T20:46:18.776Z,20.35
2022-07-29T20:48:47.068Z,20.35
2022-07-29T20:51:14.490Z,20.37
2022-07-29T20:53:41.744Z,20.34
2022-07-29T20:56:08.680Z,20.35
2022-07-29T20:58:36.598Z,20.34
2022-07-29T21:01:04.004Z,20.35
2022-07-29T21:03:30.786Z,20.36
2022-07-29T21:05:57.508Z,20.37
2022-07-29T21:08:24.600Z,20.40
2022-07-29T21:10:51.422Z,20.41
2022-07-29T21:13:18.734Z,20.40
2022-07-29T21:15:49.283Z,20.38
2022-07-29T21:18:33.004Z,20.38
2022-07-29T21:21:01.373Z,20.38
2022-07-29T21:23:28.420Z,20.37
2022-07-29T21:25:55.460Z,20.36
2022-07-29T21:28:29.530Z,20.38
2022-07-29T21:31:02.383Z,20.37
2022-07-29T21:33:31.093Z,20.36
2022-07-29T21:36:42.365Z,20.37
2022-07-29T21:38:47.362Z,20.37
2022-07-29T21:41:15.501Z,20.39
2022-07-29T21:43:42.593Z,20.40
2022-07-29T21:46:09.867Z,20.45
2022-07-29T21:48:39.109Z,20.51
2022-07-29T21:51:08.513Z,20.50
2022-07-29T21:53:35.269Z,20.45
2022-07-29T21:56:02.248Z,20.40
2022-07-29T21:58:28.920Z,20.32
2022-07-29T22:00:55.630Z,20.30
2022-07-29T22:03:22.355Z,20.27
2022-07-29T22:05:49.130Z,20.21
2022-07-29T22:08:15.807Z,20.21
2022-07-29T22:10:42.655Z,20.21
2022-07-29T22:13:09.393Z,20.20
2022-07-29T22:15:36.231Z,20.16
2022-07-29T22:18:03.320Z,20.14
2022-07-29T22:20:30.107Z,20.15
2022-07-29T22:22:57.315Z,20.19
2022-07-29T22:25:24.022Z,20.17
2022-07-29T22:27:50.710Z,20.15
2022-07-29T22:30:17.613Z,20.11
2022-07-29T22:32:44.544Z,20.06
2022-07-29T22:35:11.329Z,20.01
2022-07-29T22:37:38.152Z,19.97
2022-07-29T22:40:05.728Z,19.90
2022-07-29T22:42:33.187Z,19.89
2022-07-29T22:44:59.908Z,19.87
2022-07-29T22:47:38.785Z,19.85
2022-07-29T22:50:13.947Z,19.85
2022-07-29T22:52:40.670Z,19.86
2022-07-29T22:55:07.668Z,19.83
2022-07-29T22:57:34.299Z,19.83
2022-07-29T23:00:02.554Z,19.80
2022-07-29T23:02:29.577Z,19.80
2022-07-29T23:04:56.396Z,19.81
2022-07-29T23:07:23.670Z,19.81
2022-07-29T23:09:50.412Z,19.85
2022-07-29T23:12:17.705Z,19.90
2022-07-29T23:14:44.364Z,19.95
2022-07-29T23:17:11.286Z,19.99
2022-07-29T23:19:38.017Z,19.99
2022-07-29T23:22:05.135Z,20.04
2022-07-29T23:24:31.778Z,20.02
2022-07-29T23:26:58.749Z,19.98
2022-07-29T23:29:27.261Z,19.87
2022-07-29T23:31:53.885Z,19.83
2022-07-29T23:34:20.553Z,19.75
2022-07-29T23:36:47.268Z,19.71
2022-07-29T23:39:14.021Z,19.71
2022-07-29T23:41:40.991Z,19.74
2022-07-29T23:44:07.910Z,19.72
2022-07-29T23:46:34.650Z,19.74
2022-07-29T23:49:01.418Z,19.75
2022-07-29T23:51:29.277Z,19.78
2022-07-29T23:53:56.185Z,19.80
2022-07-29T23:56:22.963Z,19.83
2022-07-29T23:58:49.662Z,19.84
